»·PEaware :: N1718G KSAN-KSBP

N1718G :: KSAN-KSBP

FLIGHT INFORMATION

Flight Status: Arrived
Operator: Privately registered:
United States
More flights under this callsign
Pilot: Spencer M. (27733)
Aircraft: CESSNA 310
(C310)
More flights by this aircraft type
Origin: KSAN San Diego Intl-Lindbergh
United States
Destination: KSBP San Luis Co Regl
United States
More flights between these airports :: More routes between these airports
Route: +MQO
File this flight plan on PilotEdge
Remarks:
Altitude:
(Current/Filed)
8,000ft
Speed:
(Current/Filed)
180kts
Departed: 30-Jul-20 09:32 AM
Arrived: 30-Jul-20 11:03 AM
Distance/Time
Traveled:
228nm/1:31
Distance/Time
To Go:
Arrived

Flight Plot

Page will automatically refresh every two minutes.


Map Options




Map Legend


Flown Route
Filed Route
Departure Airport
Arrival Airport
Navaid (VOR, NDB)
Fix

Horizontal Profiles

Position Reports

Time Latitude Longitude Heading Altitude Ground
Speed
30-Jul-20 09:09 32.733589 -117.178850 17 20ft 0kts
30-Jul-20 09:10 32.733589 -117.178850 17 20ft 0kts
30-Jul-20 09:11 32.733589 -117.178850 17 20ft 0kts
30-Jul-20 09:12 32.733589 -117.178850 17 20ft 0kts
30-Jul-20 09:13 32.733589 -117.178850 17 20ft 0kts
30-Jul-20 09:14 32.733589 -117.178850 17 20ft 0kts
30-Jul-20 09:15 32.733589 -117.178850 17 20ft 0kts
30-Jul-20 09:16 32.733589 -117.178850 17 20ft 0kts
30-Jul-20 09:17 32.733589 -117.178850 17 20ft 0kts
30-Jul-20 09:18 32.733589 -117.178850 17 20ft 0kts
30-Jul-20 09:19 32.733589 -117.178850 17 20ft 0kts
30-Jul-20 09:20 32.733589 -117.178850 17 20ft 0kts
30-Jul-20 09:21 32.733589 -117.178850 17 20ft 0kts
30-Jul-20 09:22 32.733589 -117.178850 17 20ft 0kts
30-Jul-20 09:23 32.733589 -117.178850 17 20ft 0kts
30-Jul-20 09:25 32.733589 -117.178850 17 20ft 0kts
30-Jul-20 09:26 32.733589 -117.178850 17 20ft 0kts
30-Jul-20 09:27 32.733850 -117.178997 294 20ft 5kts
30-Jul-20 09:28 32.732157 -117.179200 105 20ft 11kts
30-Jul-20 09:29 32.730939 -117.175538 144 20ft 6kts
30-Jul-20 09:30 32.730923 -117.175524 143 20ft 0kts
30-Jul-20 09:31 32.730923 -117.175524 143 20ft 0kts
30-Jul-20 09:32 32.730650 -117.177533 290 21ft 56kts
30-Jul-20 09:33 32.743594 -117.213999 323 857ft 140kts
30-Jul-20 09:34 32.774001 -117.242542 321 1669ft 160kts
30-Jul-20 09:35 32.807397 -117.273861 320 2534ft 147kts
30-Jul-20 09:36 32.842270 -117.294476 7 3529ft 152kts
30-Jul-20 09:37 32.884297 -117.283977 8 4528ft 156kts
30-Jul-20 09:38 32.927336 -117.282586 343 5527ft 158kts
30-Jul-20 09:39 32.969731 -117.297865 337 6525ft 161kts
30-Jul-20 09:40 33.011725 -117.316789 333 7523ft 163kts
30-Jul-20 09:41 33.056796 -117.337497 335 8005ft 189kts
30-Jul-20 09:42 33.108069 -117.359731 335 7999ft 199kts
30-Jul-20 09:42 33.151481 -117.378630 335 8000ft 199kts
30-Jul-20 09:43 33.203500 -117.401342 335 8003ft 199kts
30-Jul-20 09:44 33.243534 -117.439238 281 8006ft 187kts
30-Jul-20 09:46 33.253965 -117.510933 277 7988ft 188kts
30-Jul-20 09:46 33.260826 -117.562234 278 7988ft 188kts
30-Jul-20 09:47 33.269242 -117.623957 278 7988ft 188kts
30-Jul-20 09:49 33.279081 -117.696127 277 7991ft 188kts
30-Jul-20 09:49 33.286079 -117.747644 277 7991ft 188kts
30-Jul-20 09:50 33.294464 -117.809611 277 7991ft 188kts
30-Jul-20 09:51 33.302804 -117.871490 277 7993ft 188kts
30-Jul-20 09:52 33.311122 -117.933448 277 7998ft 189kts
30-Jul-20 09:53 33.319442 -117.995662 276 8003ft 189kts
30-Jul-20 09:54 33.327725 -118.057852 276 8007ft 190kts
30-Jul-20 09:55 33.336040 -118.120505 276 8009ft 190kts
30-Jul-20 09:56 33.344317 -118.183134 276 8010ft 190kts
30-Jul-20 09:57 33.352562 -118.245766 276 8012ft 191kts
30-Jul-20 09:58 33.360814 -118.308698 276 7988ft 192kts
30-Jul-20 09:59 33.369070 -118.371925 276 7980ft 192kts
30-Jul-20 10:00 33.383955 -118.432885 301 7981ft 198kts
30-Jul-20 10:01 33.419523 -118.483702 306 7979ft 199kts
30-Jul-20 10:02 33.455458 -118.534027 306 7979ft 199kts
30-Jul-20 10:03 33.491156 -118.584848 305 7979ft 199kts
30-Jul-20 10:04 33.526754 -118.635674 305 7979ft 199kts
30-Jul-20 10:05 33.562335 -118.686543 305 8020ft 197kts
30-Jul-20 10:06 33.597628 -118.737092 305 8010ft 198kts
30-Jul-20 10:07 33.632987 -118.787808 305 7995ft 199kts
30-Jul-20 10:08 33.668749 -118.839173 305 7987ft 202kts
30-Jul-20 10:09 33.705956 -118.892781 307 7982ft 215kts
30-Jul-20 10:10 33.744602 -118.948332 307 7975ft 217kts
30-Jul-20 10:11 33.783769 -119.003403 318 7963ft 211kts
30-Jul-20 10:12 33.838659 -119.021040 351 7972ft 206kts
30-Jul-20 10:13 33.895334 -119.026286 351 7972ft 205kts
30-Jul-20 10:14 33.952174 -119.032056 351 7972ft 205kts
30-Jul-20 10:15 34.008839 -119.037986 351 7972ft 205kts
30-Jul-20 10:16 34.065533 -119.043936 351 7972ft 205kts
30-Jul-20 10:17 34.119153 -119.059623 314 7969ft 197kts
30-Jul-20 10:18 34.150113 -119.112054 300 7966ft 189kts
30-Jul-20 10:19 34.179032 -119.165033 300 7964ft 189kts
30-Jul-20 10:20 34.208086 -119.217942 300 7990ft 189kts
30-Jul-20 10:21 34.237117 -119.270799 300 7989ft 190kts
30-Jul-20 10:22 34.266333 -119.324063 300 7989ft 190kts
30-Jul-20 10:23 34.296001 -119.378265 300 7989ft 198kts
30-Jul-20 10:24 34.326844 -119.434585 299 7986ft 202kts
30-Jul-20 10:25 34.358048 -119.491737 299 7983ft 206kts
30-Jul-20 10:26 34.389984 -119.550345 300 7981ft 210kts
30-Jul-20 10:27 34.422406 -119.609898 300 7981ft 212kts
30-Jul-20 10:28 34.454859 -119.669615 299 7990ft 212kts
30-Jul-20 10:29 34.487316 -119.729457 299 7990ft 213kts
30-Jul-20 10:30 34.522263 -119.787666 308 7993ft 215kts
30-Jul-20 10:31 34.563048 -119.841141 310 8002ft 217kts
30-Jul-20 10:32 34.604264 -119.895140 310 8010ft 219kts
30-Jul-20 10:33 34.645497 -119.949448 311 8027ft 218kts
30-Jul-20 10:34 34.684156 -120.000358 310 8024ft 197kts
30-Jul-20 10:35 34.720751 -120.048843 310 8013ft 193kts
30-Jul-20 10:36 34.757101 -120.096990 309 8009ft 192kts
30-Jul-20 10:37 34.793435 -120.145157 309 8011ft 195kts
30-Jul-20 10:38 34.830395 -120.194183 309 8013ft 197kts
30-Jul-20 10:39 34.867497 -120.243575 308 8017ft 198kts
30-Jul-20 10:40 34.904680 -120.293177 309 8009ft 198kts
30-Jul-20 10:41 34.941677 -120.342523 309 8009ft 197kts
30-Jul-20 10:42 34.977668 -120.390586 309 8008ft 188kts
30-Jul-20 10:43 35.012863 -120.437680 310 8008ft 187kts
30-Jul-20 10:44 35.042908 -120.488874 302 7532ft 182kts
30-Jul-20 10:45 35.070817 -120.539205 302 6925ft 176kts
30-Jul-20 10:46 35.098225 -120.588418 302 6323ft 174kts
30-Jul-20 10:47 35.125471 -120.637427 303 5727ft 178kts
30-Jul-20 10:48 35.154524 -120.689596 302 5240ft 189kts
30-Jul-20 10:49 35.184066 -120.742813 302 4786ft 189kts
30-Jul-20 10:50 35.213481 -120.795924 303 4335ft 187kts
30-Jul-20 10:51 35.242344 -120.848083 303 4005ft 174kts
30-Jul-20 10:52 35.267517 -120.893889 303 4010ft 159kts
30-Jul-20 10:53 35.294858 -120.936680 330 4010ft 163kts
30-Jul-20 10:54 35.334017 -120.916911 52 3680ft 174kts
30-Jul-20 10:55 35.357841 -120.867379 84 3408ft 166kts
30-Jul-20 10:56 35.337900 -120.818158 125 2723ft 154kts
30-Jul-20 10:57 35.316132 -120.779502 125 2409ft 126kts
30-Jul-20 10:58 35.296678 -120.745273 125 2170ft 131kts
30-Jul-20 10:59 35.277305 -120.711183 124 1392ft 115kts
30-Jul-20 11:00 35.261063 -120.682667 124 984ft 98kts
30-Jul-20 11:01 35.246800 -120.657563 124 422ft 84kts
30-Jul-20 11:02 35.237337 -120.639933 9 216ft 12kts
30-Jul-20 11:03 35.237952 -120.639738 27 216ft 11kts

Navigation Log

Ident Type
Flight plan parsing failed, navigation log unavailable